createdAt,value
2022-09-10T00:00:15.363Z,23.04
2022-09-10T00:02:41.725Z,22.97
2022-09-10T00:05:08.028Z,22.93
2022-09-10T00:07:34.393Z,22.89
2022-09-10T00:10:00.728Z,22.76
2022-09-10T00:12:27.073Z,22.68
2022-09-10T00:14:53.429Z,22.81
2022-09-10T00:17:19.771Z,22.91
2022-09-10T00:19:46.087Z,23.05
2022-09-10T00:22:12.473Z,23.10
2022-09-10T00:24:38.791Z,23.14
2022-09-10T00:27:05.137Z,23.19
2022-09-10T00:29:31.493Z,23.33
2022-09-10T00:31:57.839Z,23.45
2022-09-10T00:34:24.156Z,23.42
2022-09-10T00:36:50.523Z,23.29
2022-09-10T00:39:16.865Z,23.35
2022-09-10T00:41:43.204Z,23.54
2022-09-10T00:44:09.556Z,23.40
2022-09-10T00:46:35.879Z,23.27
2022-09-10T00:49:02.225Z,23.29
2022-09-10T00:51:28.616Z,23.43
2022-09-10T00:53:54.949Z,23.35
2022-09-10T00:56:21.271Z,23.45
2022-09-10T00:58:47.620Z,23.47
2022-09-10T01:01:13.982Z,23.39
2022-09-10T01:03:40.306Z,23.38
2022-09-10T01:06:06.689Z,23.42
2022-09-10T01:08:32.992Z,23.39
2022-09-10T01:10:59.374Z,23.34
2022-09-10T01:13:25.725Z,23.22
2022-09-10T01:15:52.141Z,23.13
2022-09-10T01:18:18.425Z,22.96
2022-09-10T01:20:44.810Z,22.97
2022-09-10T01:23:15.712Z,23.04
2022-09-10T01:25:37.475Z,22.99
2022-09-10T01:28:03.802Z,22.97
2022-09-10T01:30:30.136Z,22.92
2022-09-10T01:32:56.453Z,22.85
2022-09-10T01:35:22.838Z,22.80
2022-09-10T01:37:49.178Z,22.76
2022-09-10T01:40:15.501Z,22.78
2022-09-10T01:42:41.849Z,22.88
2022-09-10T01:45:08.199Z,22.90
2022-09-10T01:47:34.522Z,22.98
2022-09-10T01:50:00.874Z,22.85
2022-09-10T01:52:27.214Z,22.93
2022-09-10T01:54:53.559Z,22.95
2022-09-10T01:57:19.895Z,22.96
2022-09-10T01:59:46.237Z,22.92
2022-09-10T02:02:12.628Z,22.89
2022-09-10T02:04:38.903Z,22.83
2022-09-10T02:07:05.220Z,22.80
2022-09-10T02:09:31.565Z,22.83
2022-09-10T02:11:57.916Z,22.98
2022-09-10T02:14:24.239Z,23.14
2022-09-10T02:16:50.584Z,23.06
2022-09-10T02:19:16.943Z,23.06
2022-09-10T02:21:43.282Z,23.07
2022-09-10T02:24:09.624Z,23.08
2022-09-10T02:26:35.965Z,23.12
2022-09-10T02:29:02.344Z,23.09
2022-09-10T02:31:28.687Z,23.19
2022-09-10T02:33:54.987Z,23.33
2022-09-10T02:36:21.354Z,23.28
2022-09-10T02:38:47.688Z,23.31
2022-09-10T02:41:14.002Z,23.20
2022-09-10T02:43:40.369Z,23.09
2022-09-10T02:46:06.708Z,23.06
2022-09-10T02:48:33.051Z,23.09
2022-09-10T02:50:59.416Z,23.14
2022-09-10T02:53:25.762Z,23.17
2022-09-10T02:55:52.129Z,23.13
2022-09-10T02:58:18.462Z,23.08
2022-09-10T03:00:44.845Z,23.10
2022-09-10T03:03:11.143Z,23.25
2022-09-10T03:05:37.496Z,23.33
2022-09-10T03:08:03.821Z,23.33
2022-09-10T03:10:30.147Z,23.29
2022-09-10T03:12:56.478Z,23.25
2022-09-10T03:15:22.828Z,23.15
2022-09-10T03:17:49.182Z,23.15
2022-09-10T03:20:15.498Z,23.12
2022-09-10T03:22:41.826Z,23.08
2022-09-10T03:25:08.174Z,23.09
2022-09-10T03:27:34.512Z,23.04
2022-09-10T03:30:00.844Z,23.10
2022-09-10T03:32:27.198Z,23.17
2022-09-10T03:34:53.531Z,23.17
2022-09-10T03:37:19.877Z,23.21
2022-09-10T03:39:46.349Z,23.18
2022-09-10T03:42:12.535Z,23.21
2022-09-10T03:44:38.853Z,23.14
2022-09-10T03:47:05.189Z,23.02
2022-09-10T03:49:31.510Z,22.99
2022-09-10T03:51:57.857Z,23.10
2022-09-10T03:54:24.202Z,23.04
2022-09-10T03:56:50.520Z,22.93
2022-09-10T03:59:16.842Z,22.85
2022-09-10T04:01:43.195Z,22.91
2022-09-10T04:04:09.534Z,22.97
2022-09-10T04:06:35.858Z,23.19
2022-09-10T04:09:02.216Z,23.13
2022-09-10T04:11:28.534Z,23.01
2022-09-10T04:13:54.873Z,23.05
2022-09-10T04:16:21.254Z,22.99
2022-09-10T04:18:47.614Z,22.89
2022-09-10T04:21:13.938Z,23.00
2022-09-10T04:23:40.260Z,22.99
2022-09-10T04:26:06.632Z,23.00
2022-09-10T04:28:32.954Z,23.04
2022-09-10T04:30:59.282Z,22.93
2022-09-10T04:33:25.629Z,23.07
2022-09-10T04:35:51.996Z,23.10
2022-09-10T04:38:18.334Z,23.07
2022-09-10T04:40:44.675Z,23.01
2022-09-10T04:43:11.019Z,23.00
2022-09-10T04:45:37.346Z,22.97
2022-09-10T04:48:06.838Z,23.07
2022-09-10T04:50:30.048Z,23.15
2022-09-10T04:52:56.369Z,23.18
2022-09-10T04:55:22.692Z,23.05
2022-09-10T04:57:49.075Z,23.01
2022-09-10T05:00:15.396Z,23.01
2022-09-10T05:02:41.717Z,22.93
2022-09-10T05:05:08.103Z,22.90
2022-09-10T05:07:34.442Z,22.93
2022-09-10T05:10:00.761Z,23.00
2022-09-10T05:12:27.085Z,23.12
2022-09-10T05:14:53.409Z,23.19
2022-09-10T05:17:19.750Z,23.21
2022-09-10T05:19:46.099Z,23.38
2022-09-10T05:22:12.421Z,23.35
2022-09-10T05:24:38.784Z,23.35
2022-09-10T05:27:05.108Z,23.38
2022-09-10T05:29:31.430Z,23.25
2022-09-10T05:31:57.890Z,23.13
2022-09-10T05:34:24.161Z,23.16
2022-09-10T05:36:50.477Z,23.21
2022-09-10T05:39:16.828Z,23.30
2022-09-10T05:41:43.153Z,23.20
2022-09-10T05:44:09.491Z,23.17
2022-09-10T05:46:35.832Z,23.14
2022-09-10T05:49:02.172Z,23.15
2022-09-10T05:51:28.493Z,23.28
2022-09-10T05:53:54.816Z,23.27
2022-09-10T05:56:21.171Z,23.31
2022-09-10T05:58:47.493Z,23.46
2022-09-10T06:01:13.829Z,23.62
2022-09-10T06:03:40.211Z,23.93
2022-09-10T06:06:06.550Z,24.67
2022-09-10T06:08:32.981Z,25.28
2022-09-10T06:10:59.266Z,25.62
2022-09-10T06:13:25.599Z,25.40
2022-09-10T06:15:51.941Z,25.38
2022-09-10T06:18:18.284Z,25.40
2022-09-10T06:20:44.633Z,25.31
2022-09-10T06:23:10.948Z,24.81
2022-09-10T06:25:37.323Z,24.63
2022-09-10T06:28:03.651Z,24.75
2022-09-10T06:30:30.082Z,24.85
2022-09-10T06:32:56.346Z,24.80
2022-09-10T06:35:22.690Z,24.64
2022-09-10T06:37:49.013Z,24.75
2022-09-10T06:40:15.338Z,25.07
2022-09-10T06:42:41.713Z,25.43
2022-09-10T06:45:08.029Z,25.57
2022-09-10T06:50:00.722Z,26.20
2022-09-10T06:52:27.046Z,26.52
2022-09-10T06:54:53.375Z,26.47
2022-09-10T06:57:19.718Z,26.33
2022-09-10T06:59:46.069Z,26.38
2022-09-10T07:02:12.414Z,26.68
2022-09-10T07:04:38.737Z,27.56
2022-09-10T07:07:05.076Z,28.12
2022-09-10T07:09:31.404Z,28.47
2022-09-10T07:11:57.757Z,28.43
2022-09-10T07:14:24.080Z,29.01
2022-09-10T07:16:50.422Z,29.76
2022-09-10T07:19:16.802Z,30.37
2022-09-10T07:21:43.252Z,30.58
2022-09-10T07:24:09.600Z,31.33
2022-09-10T07:26:35.934Z,31.49
2022-09-10T07:29:02.293Z,31.22
2022-09-10T07:31:28.637Z,31.08
2022-09-10T07:33:54.976Z,31.58
2022-09-10T07:36:21.335Z,30.88
2022-09-10T07:38:47.662Z,31.22
2022-09-10T07:41:14.003Z,31.70
2022-09-10T07:43:40.357Z,31.82
2022-09-10T07:46:06.724Z,31.76
2022-09-10T07:48:33.047Z,31.97
2022-09-10T07:50:59.365Z,32.27
2022-09-10T07:53:25.694Z,32.01
2022-09-10T07:55:52.022Z,32.46
2022-09-10T07:58:18.373Z,32.73
2022-09-10T08:00:44.685Z,32.55
2022-09-10T08:03:11.017Z,32.18
2022-09-10T08:05:37.366Z,32.30
2022-09-10T08:08:03.685Z,32.13
2022-09-10T08:10:30.019Z,32.16
2022-09-10T08:12:56.366Z,31.93
2022-09-10T08:15:22.713Z,32.60
2022-09-10T08:17:49.066Z,32.80
2022-09-10T08:20:15.417Z,33.26
2022-09-10T08:22:41.753Z,33.60
2022-09-10T08:25:08.073Z,33.42
2022-09-10T08:27:34.440Z,33.39
2022-09-10T08:30:00.779Z,33.70
2022-09-10T08:32:27.123Z,33.43
2022-09-10T08:34:53.440Z,33.61
2022-09-10T08:37:19.798Z,33.05
2022-09-10T08:39:46.195Z,32.07
2022-09-10T08:42:12.482Z,31.59
2022-09-10T08:44:38.797Z,31.24
2022-09-10T08:47:05.133Z,30.46
2022-09-10T08:49:31.479Z,30.23
2022-09-10T08:51:57.800Z,30.23
2022-09-10T08:54:24.122Z,30.22
2022-09-10T08:56:50.453Z,30.83
2022-09-10T08:59:16.773Z,31.10
2022-09-10T09:01:43.359Z,30.81
2022-09-10T09:04:09.679Z,30.73
2022-09-10T09:06:36.025Z,30.56
2022-09-10T09:09:02.380Z,30.41
2022-09-10T09:11:28.729Z,30.28
2022-09-10T09:13:55.048Z,30.20
2022-09-10T09:16:21.398Z,30.30
2022-09-10T09:18:47.775Z,30.30
2022-09-10T09:21:14.135Z,30.22
2022-09-10T09:23:56.837Z,29.88
2022-09-10T09:26:06.904Z,29.60
2022-09-10T09:28:33.533Z,29.16
2022-09-10T09:30:59.891Z,28.76
2022-09-10T09:33:26.232Z,28.77
2022-09-10T09:35:52.576Z,28.87
2022-09-10T09:38:18.907Z,28.72
2022-09-10T09:40:45.272Z,28.86
2022-09-10T09:43:11.612Z,29.00
2022-09-10T09:45:37.993Z,29.34
2022-09-10T09:48:04.309Z,29.39
2022-09-10T09:50:30.639Z,29.51
2022-09-10T09:52:56.960Z,29.96
2022-09-10T09:55:23.316Z,30.10
2022-09-10T09:57:49.674Z,30.63
2022-09-10T10:00:16.000Z,31.39
2022-09-10T10:02:42.342Z,31.68
2022-09-10T10:05:08.725Z,31.90
2022-09-10T10:07:35.066Z,32.64
2022-09-10T10:10:01.407Z,33.90
2022-09-10T10:12:27.745Z,34.58
2022-09-10T10:14:54.075Z,34.53
2022-09-10T10:17:20.419Z,35.26
2022-09-10T10:19:46.760Z,35.33
2022-09-10T10:22:13.106Z,35.56
2022-09-10T10:24:39.446Z,35.55
2022-09-10T10:27:05.788Z,35.43
2022-09-10T10:29:32.093Z,35.06
2022-09-10T10:32:01.553Z,34.73
2022-09-10T10:34:24.813Z,35.15
2022-09-10T10:36:51.149Z,35.51
2022-09-10T10:39:17.491Z,34.75
2022-09-10T10:41:43.811Z,34.33
2022-09-10T10:44:10.158Z,34.72
2022-09-10T10:46:36.552Z,35.01
2022-09-10T10:49:04.030Z,34.80
2022-09-10T10:51:29.171Z,34.46
2022-09-10T10:53:55.591Z,34.54
2022-09-10T10:56:21.911Z,35.24
2022-09-10T10:58:52.260Z,34.81
2022-09-10T11:01:14.684Z,34.16
2022-09-10T11:03:40.972Z,34.38
2022-09-10T11:06:07.312Z,34.31
2022-09-10T11:08:33.641Z,33.66
2022-09-10T11:11:00.033Z,33.30
2022-09-10T11:13:26.386Z,32.94
2022-09-10T11:15:52.764Z,32.60
2022-09-10T11:18:19.101Z,32.13
2022-09-10T11:20:45.419Z,31.92
2022-09-10T11:23:11.746Z,30.98
2022-09-10T11:25:38.069Z,28.07
2022-09-10T11:28:04.397Z,24.23
2022-09-10T11:30:30.721Z,23.12
2022-09-10T11:32:57.072Z,22.20
2022-09-10T11:35:23.414Z,21.94
2022-09-10T11:37:49.732Z,21.30
2022-09-10T11:40:16.082Z,20.95
2022-09-10T11:42:42.383Z,21.14
2022-09-10T11:45:08.712Z,21.36
2022-09-10T11:47:35.070Z,21.25
2022-09-10T11:50:01.402Z,21.45
2022-09-10T11:52:27.745Z,21.49
2022-09-10T11:54:54.133Z,21.53
2022-09-10T11:57:20.457Z,21.82
2022-09-10T11:59:46.804Z,21.86
2022-09-10T12:02:13.350Z,21.95
2022-09-10T12:04:40.875Z,22.03
2022-09-10T12:07:05.873Z,22.18
2022-09-10T12:09:32.208Z,22.13
2022-09-10T12:11:58.554Z,22.15
2022-09-10T12:14:24.871Z,22.30
2022-09-10T12:16:51.219Z,22.22
2022-09-10T12:19:17.562Z,22.06
2022-09-10T12:21:43.905Z,21.99
2022-09-10T12:24:10.233Z,21.91
2022-09-10T12:26:36.580Z,21.96
2022-09-10T12:29:02.906Z,22.18
2022-09-10T12:31:29.334Z,22.40
2022-09-10T12:33:55.602Z,22.78
2022-09-10T12:36:21.966Z,23.19
2022-09-10T12:38:48.312Z,23.82
2022-09-10T12:41:14.640Z,24.08
2022-09-10T12:43:41.149Z,23.96
2022-09-10T12:46:07.420Z,24.13
2022-09-10T12:48:33.648Z,23.96
2022-09-10T12:51:00.040Z,23.84
2022-09-10T12:53:26.368Z,23.75
2022-09-10T12:55:52.720Z,23.78
2022-09-10T12:58:19.082Z,23.69
2022-09-10T13:00:45.401Z,23.65
2022-09-10T13:03:11.752Z,23.84
2022-09-10T13:05:38.113Z,23.92
2022-09-10T13:08:04.487Z,23.85
2022-09-10T13:10:30.828Z,23.83
2022-09-10T13:12:57.171Z,23.84
2022-09-10T13:15:23.520Z,24.03
2022-09-10T13:17:49.865Z,24.09
2022-09-10T13:20:16.209Z,23.97
2022-09-10T13:22:42.527Z,24.03
2022-09-10T13:25:08.862Z,24.16
2022-09-10T13:27:35.185Z,24.04
2022-09-10T13:30:01.535Z,24.10
2022-09-10T13:32:27.851Z,23.98
2022-09-10T13:34:54.236Z,23.99
2022-09-10T13:37:20.578Z,24.07
2022-09-10T13:39:46.949Z,24.06
2022-09-10T13:42:13.275Z,24.26
2022-09-10T13:44:39.615Z,23.99
2022-09-10T13:47:05.936Z,24.02
2022-09-10T13:49:32.302Z,24.10
2022-09-10T13:51:58.645Z,24.18
2022-09-10T13:54:24.987Z,24.31
2022-09-10T13:56:51.606Z,24.48
2022-09-10T13:59:17.938Z,24.62
2022-09-10T14:01:44.306Z,24.54
2022-09-10T14:04:10.650Z,24.48
2022-09-10T14:06:36.991Z,24.55
2022-09-10T14:09:03.335Z,24.75
2022-09-10T14:11:29.678Z,24.82
2022-09-10T14:13:56.026Z,24.89
2022-09-10T14:16:22.357Z,24.92
2022-09-10T14:18:48.680Z,24.84
2022-09-10T14:21:15.065Z,24.80
2022-09-10T14:23:41.472Z,24.87
2022-09-10T14:26:07.702Z,24.96
2022-09-10T14:28:34.029Z,24.80
2022-09-10T14:31:00.435Z,24.59
2022-09-10T14:33:26.722Z,24.53
2022-09-10T14:35:53.045Z,24.63
2022-09-10T14:38:19.381Z,24.67
2022-09-10T14:40:45.702Z,24.79
2022-09-10T14:43:12.054Z,24.90
2022-09-10T14:45:38.400Z,25.02
2022-09-10T14:48:04.831Z,25.23
2022-09-10T14:50:31.212Z,25.36
2022-09-10T14:52:57.506Z,25.45
2022-09-10T14:55:23.888Z,25.42
2022-09-10T14:57:50.237Z,25.50
2022-09-10T15:00:16.573Z,25.55
2022-09-10T15:02:42.945Z,25.52
2022-09-10T15:05:09.305Z,25.62
2022-09-10T15:07:35.617Z,25.77
2022-09-10T15:10:01.994Z,26.01
2022-09-10T15:12:28.345Z,26.13
2022-09-10T15:14:54.672Z,26.19
2022-09-10T15:17:21.017Z,26.19
2022-09-10T15:19:47.426Z,26.26
2022-09-10T15:22:13.749Z,26.27
2022-09-10T15:25:05.521Z,26.28
2022-09-10T15:27:06.581Z,26.23
2022-09-10T15:29:32.903Z,26.20
2022-09-10T15:31:59.297Z,26.07
2022-09-10T15:34:25.615Z,25.99
2022-09-10T15:36:51.947Z,25.98
2022-09-10T15:39:18.333Z,25.85
2022-09-10T15:41:44.657Z,25.89
2022-09-10T15:44:10.987Z,25.90
2022-09-10T15:46:37.395Z,25.97
2022-09-10T15:49:03.671Z,26.06
2022-09-10T15:51:30.008Z,26.03
2022-09-10T15:53:56.365Z,25.95
2022-09-10T15:56:22.736Z,25.98
2022-09-10T15:58:49.058Z,25.96
2022-09-10T16:01:15.415Z,25.89
2022-09-10T16:03:41.711Z,25.76
2022-09-10T16:06:08.032Z,25.81
2022-09-10T16:08:34.383Z,25.82
2022-09-10T16:11:00.703Z,25.85
2022-09-10T16:13:27.067Z,25.81
2022-09-10T16:15:53.426Z,25.88
2022-09-10T16:18:19.721Z,25.91
2022-09-10T16:20:46.048Z,25.87
2022-09-10T16:23:12.397Z,25.89
2022-09-10T16:25:38.736Z,25.84
2022-09-10T16:28:05.138Z,25.82
2022-09-10T16:30:31.449Z,25.83
2022-09-10T16:32:57.786Z,25.79
2022-09-10T16:35:24.134Z,25.83
2022-09-10T16:37:50.469Z,25.84
2022-09-10T16:40:16.897Z,25.88
2022-09-10T16:42:43.192Z,25.91
2022-09-10T16:45:09.507Z,25.87
2022-09-10T16:47:35.877Z,25.72
2022-09-10T16:50:02.204Z,25.66
2022-09-10T16:52:28.528Z,25.59
2022-09-10T16:54:54.875Z,25.43
2022-09-10T16:57:21.201Z,25.27
2022-09-10T16:59:47.527Z,25.39
2022-09-10T17:02:14.055Z,25.40
2022-09-10T17:04:40.414Z,25.35
2022-09-10T17:07:06.741Z,25.42
2022-09-10T17:09:33.086Z,25.41
2022-09-10T17:11:59.429Z,25.47
2022-09-10T17:14:25.771Z,25.51
2022-09-10T17:16:52.097Z,25.49
2022-09-10T17:19:18.457Z,25.48
2022-09-10T17:21:44.806Z,25.52
2022-09-10T17:24:11.147Z,25.40
2022-09-10T17:26:37.470Z,25.38
2022-09-10T17:29:03.852Z,25.39
2022-09-10T17:31:30.257Z,25.46
2022-09-10T17:33:56.528Z,25.46
2022-09-10T17:36:22.864Z,25.44
2022-09-10T17:38:49.214Z,25.38
2022-09-10T17:41:15.547Z,25.28
2022-09-10T17:43:41.953Z,25.17
2022-09-10T17:46:08.233Z,25.03
2022-09-10T17:48:34.556Z,25.02
2022-09-10T17:51:00.902Z,25.02
2022-09-10T17:53:27.223Z,25.09
2022-09-10T17:55:53.574Z,25.11
2022-09-10T17:58:19.963Z,25.07
2022-09-10T18:00:46.285Z,25.10
2022-09-10T18:03:12.712Z,25.10
2022-09-10T18:05:39.091Z,25.11
2022-09-10T18:08:05.408Z,25.09
2022-09-10T18:10:31.767Z,25.00
2022-09-10T18:13:00.271Z,24.99
2022-09-10T18:15:24.471Z,24.93
2022-09-10T18:17:50.812Z,24.92
2022-09-10T18:20:17.144Z,24.89
2022-09-10T18:22:43.464Z,24.81
2022-09-10T18:25:09.824Z,24.78
2022-09-10T18:27:36.169Z,24.72
2022-09-10T18:30:02.489Z,24.63
2022-09-10T18:32:28.835Z,24.59
2022-09-10T18:34:55.159Z,24.55
2022-09-10T18:37:21.498Z,24.49
2022-09-10T18:39:47.860Z,24.42
2022-09-10T18:42:14.196Z,24.36
2022-09-10T18:44:40.547Z,24.36
2022-09-10T18:47:17.877Z,24.43
2022-09-10T18:49:33.203Z,24.54
2022-09-10T18:51:59.533Z,24.63
2022-09-10T18:54:25.858Z,24.57
2022-09-10T18:56:52.258Z,24.59
2022-09-10T18:59:18.605Z,24.54
2022-09-10T19:01:45.028Z,24.51
2022-09-10T19:04:11.288Z,24.27
2022-09-10T19:06:38.634Z,24.21
2022-09-10T19:09:04.987Z,24.13
2022-09-10T19:11:31.340Z,24.10
2022-09-10T19:13:57.678Z,23.99
2022-09-10T19:16:24.029Z,24.00
2022-09-10T19:18:50.445Z,23.92
2022-09-10T19:21:16.779Z,23.89
2022-09-10T19:23:43.122Z,23.83
2022-09-10T19:26:09.789Z,23.82
2022-09-10T19:28:36.110Z,23.80
2022-09-10T19:31:02.437Z,23.74
2022-09-10T19:33:28.756Z,23.59
2022-09-10T19:35:56.681Z,23.55
2022-09-10T19:40:47.795Z,23.51
2022-09-10T19:43:14.121Z,23.47
2022-09-10T19:45:40.444Z,23.45
2022-09-10T19:48:06.812Z,23.43
2022-09-10T19:50:33.162Z,23.44
2022-09-10T19:52:59.493Z,23.44
2022-09-10T19:55:25.819Z,23.41
2022-09-10T19:57:52.175Z,23.40
2022-09-10T20:00:43.084Z,23.30
2022-09-10T20:02:44.919Z,23.26
2022-09-10T20:05:11.193Z,23.29
2022-09-10T20:07:37.585Z,23.37
2022-09-10T20:10:03.933Z,23.39
2022-09-10T20:12:30.277Z,23.28
2022-09-10T20:14:56.619Z,23.25
2022-09-10T20:17:22.942Z,23.23
2022-09-10T20:19:49.262Z,23.22
2022-09-10T20:22:15.621Z,23.22
2022-09-10T20:24:41.961Z,23.22
2022-09-10T20:27:08.322Z,23.25
2022-09-10T20:29:34.708Z,23.25
2022-09-10T20:32:01.058Z,23.10
2022-09-10T20:34:27.398Z,23.07
2022-09-10T20:36:53.731Z,23.06
2022-09-10T20:39:20.096Z,23.09
2022-09-10T20:41:46.426Z,23.16
2022-09-10T20:44:12.775Z,23.05
2022-09-10T20:46:39.152Z,23.01
2022-09-10T20:49:05.459Z,22.91
2022-09-10T20:51:31.808Z,22.88
2022-09-10T20:53:58.163Z,22.85
2022-09-10T20:56:24.488Z,22.79
2022-09-10T20:58:50.810Z,22.76
2022-09-10T21:01:17.257Z,22.74
2022-09-10T21:03:43.519Z,22.72
2022-09-10T21:06:09.871Z,22.63
2022-09-10T21:08:36.209Z,22.64
2022-09-10T21:11:02.598Z,22.61
2022-09-10T21:13:28.929Z,22.61
2022-09-10T21:15:55.289Z,22.62
2022-09-10T21:18:21.602Z,22.57
2022-09-10T21:20:47.948Z,22.54
2022-09-10T21:23:14.269Z,22.49
2022-09-10T21:25:40.594Z,22.45
2022-09-10T21:28:06.942Z,22.42
2022-09-10T21:30:33.285Z,22.39
2022-09-10T21:32:59.626Z,22.38
2022-09-10T21:35:25.974Z,22.37
2022-09-10T21:37:52.312Z,22.36
2022-09-10T21:40:18.669Z,22.37
2022-09-10T21:42:45.019Z,22.42
2022-09-10T21:45:11.369Z,22.36
2022-09-10T21:47:37.739Z,22.36
2022-09-10T21:50:04.061Z,22.26
2022-09-10T21:52:30.386Z,22.33
2022-09-10T21:54:56.730Z,22.21
2022-09-10T21:57:23.056Z,22.28
2022-09-10T21:59:49.401Z,22.34
2022-09-10T22:02:15.914Z,22.30
2022-09-10T22:04:42.102Z,22.37
2022-09-10T22:07:08.426Z,22.32
2022-09-10T22:09:34.792Z,22.36
2022-09-10T22:12:01.135Z,22.38
2022-09-10T22:14:27.477Z,22.45
2022-09-10T22:16:53.800Z,22.41
2022-09-10T22:19:20.148Z,22.37
2022-09-10T22:21:46.470Z,22.30
2022-09-10T22:24:12.848Z,22.32
2022-09-10T22:26:39.187Z,22.37
2022-09-10T22:29:05.517Z,22.32
2022-09-10T22:31:31.907Z,22.27
2022-09-10T22:33:58.197Z,22.32
2022-09-10T22:36:24.514Z,22.21
2022-09-10T22:38:50.885Z,22.24
2022-09-10T22:41:17.223Z,22.16
2022-09-10T22:43:43.577Z,22.14
2022-09-10T22:46:10.023Z,22.17
2022-09-10T22:48:36.245Z,22.14
2022-09-10T22:51:02.571Z,22.15
2022-09-10T22:53:28.958Z,22.18
2022-09-10T22:55:55.272Z,22.16
2022-09-10T22:58:21.623Z,22.16
2022-09-10T23:00:47.960Z,22.20
2022-09-10T23:03:14.305Z,22.23
2022-09-10T23:05:40.634Z,22.19
2022-09-10T23:08:06.981Z,22.13
2022-09-10T23:10:33.310Z,22.01
2022-09-10T23:12:59.674Z,22.04
2022-09-10T23:15:25.991Z,22.07
2022-09-10T23:17:52.359Z,21.97
2022-09-10T23:20:18.725Z,21.94
2022-09-10T23:22:45.068Z,21.95
2022-09-10T23:25:11.388Z,21.95
2022-09-10T23:27:37.743Z,21.87
2022-09-10T23:30:04.082Z,21.83
2022-09-10T23:32:30.437Z,21.75
2022-09-10T23:34:56.781Z,21.73
2022-09-10T23:37:23.109Z,21.74
2022-09-10T23:39:49.495Z,21.73
2022-09-10T23:42:15.791Z,21.69
2022-09-10T23:44:42.113Z,21.72
2022-09-10T23:47:08.456Z,21.74
2022-09-10T23:49:34.776Z,21.70
2022-09-10T23:52:01.105Z,21.66
2022-09-10T23:54:27.454Z,21.59
2022-09-10T23:56:53.802Z,21.59
2022-09-10T23:59:20.119Z,21.61
